Time;durP1;ratioP1;P1;durP2;ratioP2;P2;SDS_P1;SDS_P2;PMS_P1;PMS_P2;Temp;Humidity;BMP_temperature;BMP_pressure;BME280_temperature;BME280_humidity;BME280_pressure;Samples;Min_cycle;Max_cycle;Signal;HPM_P1;HPM_P2
2022/07/15 00:00:35;;;;;;;5.25;1.35;;;16.10;99.90;;;;;;4883171;29;48536;-79
2022/07/15 00:03:13;;;;;;;10.27;1.80;;;16.10;99.90;;;;;;4883289;29;38019;-79
2022/07/15 00:05:39;;;;;;;6.70;1.40;;;16.20;99.90;;;;;;4894226;29;38468;-80
2022/07/15 00:08:15;;;;;;;6.70;1.45;;;16.10;99.90;;;;;;4874098;29;39175;-80
2022/07/15 00:10:44;;;;;;;5.25;1.38;;;16.00;99.90;;;;;;4885162;29;38078;-80
2022/07/15 00:13:25;;;;;;;5.50;1.42;;;16.00;99.90;;;;;;4881665;29;37707;-79
2022/07/15 00:16:13;;;;;;;7.70;1.83;;;16.00;99.90;;;;;;4885446;29;37203;-79
2022/07/15 00:18:49;;;;;;;3.85;1.20;;;16.00;99.90;;;;;;4872824;29;48396;-80
2022/07/15 00:21:18;;;;;;;11.73;1.75;;;15.90;99.90;;;;;;4873572;29;38622;-80
2022/07/15 00:23:44;;;;;;;6.57;1.75;;;15.90;99.90;;;;;;4882776;29;38522;-79
2022/07/15 00:26:40;;;;;;;6.00;1.38;;;15.80;99.90;;;;;;4875337;29;38873;-79
2022/07/15 00:29:20;;;;;;;5.40;1.20;;;15.80;99.90;;;;;;4859443;29;38405;-80
2022/07/15 00:31:46;;;;;;;5.35;1.30;;;15.80;99.90;;;;;;4878908;29;38120;-80
2022/07/15 00:34:13;;;;;;;6.57;1.33;;;15.80;99.90;;;;;;4882305;29;38416;-80
2022/07/15 00:37:03;;;;;;;3.88;1.10;;;15.80;99.90;;;;;;4881561;29;37448;-79
2022/07/15 00:39:34;;;;;;;5.60;1.00;;;15.80;99.90;;;;;;4881691;29;48453;-79
2022/07/15 00:42:43;;;;;;;3.50;0.82;;;15.80;99.90;;;;;;4898474;29;39048;-80
2022/07/15 00:45:04;;;;;;;4.18;1.65;;;15.80;99.90;;;;;;4898104;29;49026;-80
2022/07/15 00:47:31;;;;;;;5.78;1.30;;;15.80;99.90;;;;;;4880738;29;48404;-80
2022/07/15 00:49:59;;;;;;;5.82;1.60;;;15.70;99.90;;;;;;4878115;29;38727;-79
2022/07/15 00:52:40;;;;;;;7.97;1.50;;;15.60;99.90;;;;;;4864598;29;37420;-80
2022/07/15 00:55:15;;;;;;;7.28;1.20;;;15.60;99.90;;;;;;4881522;29;38451;-81
2022/07/15 00:57:56;;;;;;;4.60;1.35;;;15.60;99.90;;;;;;4874744;29;37530;-80
2022/07/15 01:00:23;;;;;;;5.37;0.90;;;15.60;99.90;;;;;;4859897;29;39130;-79
2022/07/15 01:02:51;;;;;;;6.38;1.20;;;15.60;99.90;;;;;;4885084;29;38320;-79
2022/07/15 01:05:21;;;;;;;4.88;0.95;;;15.60;99.90;;;;;;4877099;29;37975;-79
2022/07/15 01:07:50;;;;;;;4.05;0.98;;;15.50;99.90;;;;;;4877544;29;37125;-80
2022/07/15 01:10:39;;;;;;;5.95;1.27;;;15.50;99.90;;;;;;4879110;29;37491;-80
2022/07/15 01:13:11;;;;;;;7.05;1.10;;;15.60;99.90;;;;;;4878983;29;37322;-81
2022/07/15 01:15:42;;;;;;;4.35;1.20;;;15.50;99.90;;;;;;4882533;29;38274;-80
2022/07/15 01:18:18;;;;;;;8.32;1.33;;;15.50;99.90;;;;;;4880141;29;36933;-80
2022/07/15 01:20:56;;;;;;;5.88;1.20;;;15.50;99.90;;;;;;4882121;29;38910;-79
2022/07/15 01:23:40;;;;;;;11.80;2.08;;;15.50;99.90;;;;;;4881820;29;38591;-81
2022/07/15 01:26:14;;;;;;;4.15;0.93;;;15.50;99.90;;;;;;4872822;29;38093;-80
2022/07/15 01:28:46;;;;;;;5.28;1.00;;;15.60;99.90;;;;;;4880423;29;36942;-80
2022/07/15 01:34:17;;;;;;;5.07;1.48;;;15.50;99.90;;;;;;4897263;29;40230;-80
2022/07/15 01:37:01;;;;;;;6.13;1.48;;;15.50;99.90;;;;;;4880093;29;37631;-79
2022/07/15 01:39:43;;;;;;;6.95;1.70;;;15.50;99.90;;;;;;4863642;29;47888;-80
2022/07/15 01:42:23;;;;;;;4.65;1.30;;;15.50;99.90;;;;;;4856811;29;38665;-79
2022/07/15 01:44:56;;;;;;;8.20;1.70;;;15.50;99.90;;;;;;4860845;29;37070;-79
2022/07/15 01:47:59;;;;;;;5.07;1.70;;;15.50;99.90;;;;;;4875466;29;38342;-81
2022/07/15 01:50:51;;;;;;;3.53;1.50;;;15.50;99.90;;;;;;4873068;29;36461;-81
2022/07/15 01:53:44;;;;;;;7.10;1.75;;;15.50;99.90;;;;;;4873037;29;38281;-81
2022/07/15 01:56:10;;;;;;;7.72;2.17;;;15.50;99.90;;;;;;4875396;29;37089;-82
2022/07/15 01:58:43;;;;;;;8.07;2.10;;;15.40;99.90;;;;;;4875100;29;36632;-81
2022/07/15 02:01:18;;;;;;;6.38;2.05;;;15.40;99.90;;;;;;4876957;29;36718;-81
2022/07/15 02:04:01;;;;;;;6.53;2.00;;;15.40;99.90;;;;;;4869949;29;37920;-81
2022/07/15 02:06:30;;;;;;;9.15;2.15;;;15.40;99.90;;;;;;4872086;29;47198;-80
2022/07/15 02:09:02;;;;;;;4.40;1.88;;;15.40;99.90;;;;;;4877821;29;37280;-81
2022/07/15 02:11:36;;;;;;;8.07;2.00;;;15.30;99.90;;;;;;4876556;29;48562;-81
2022/07/15 02:14:03;;;;;;;7.78;2.20;;;15.30;99.90;;;;;;4875148;29;37618;-81
2022/07/15 02:16:37;;;;;;;6.18;1.88;;;15.30;99.90;;;;;;4884813;29;38158;-79
2022/07/15 02:19:04;;;;;;;8.35;2.10;;;15.30;99.90;;;;;;4881710;29;37860;-80
2022/07/15 02:21:30;;;;;;;6.53;1.75;;;15.20;99.90;;;;;;4873165;29;36678;-80
2022/07/15 02:24:03;;;;;;;5.93;1.95;;;15.20;99.90;;;;;;4871052;29;38328;-80
2022/07/15 02:26:30;;;;;;;3.90;2.08;;;15.10;99.90;;;;;;4864178;29;50016;-80
2022/07/15 02:29:02;;;;;;;6.13;2.05;;;15.10;99.90;;;;;;4869820;29;38393;-80
2022/07/15 02:32:04;;;;;;;6.22;2.30;;;15.10;99.90;;;;;;4878253;29;48357;-80
2022/07/15 02:34:37;;;;;;;9.68;2.20;;;15.10;99.90;;;;;;4874356;29;48009;-79
2022/07/15 02:37:17;;;;;;;4.78;1.95;;;15.00;99.90;;;;;;4872538;29;38359;-79
2022/07/15 02:39:43;;;;;;;4.95;1.92;;;15.00;99.90;;;;;;4876022;29;36982;-81
2022/07/15 02:42:19;;;;;;;10.73;2.20;;;15.10;99.90;;;;;;4880699;29;36104;-81
2022/07/15 02:44:47;;;;;;;4.53;1.52;;;15.00;99.90;;;;;;4881258;29;40284;-81
2022/07/15 02:47:36;;;;;;;3.47;1.60;;;14.90;99.90;;;;;;4880376;29;38082;-80
2022/07/15 02:50:23;;;;;;;5.32;1.52;;;14.90;99.90;;;;;;4880868;29;37934;-80
2022/07/15 02:52:53;;;;;;;3.67;1.50;;;14.90;99.90;;;;;;4880800;29;48832;-80
2022/07/15 02:55:22;;;;;;;6.05;1.50;;;14.90;99.90;;;;;;4879308;29;38954;-80
2022/07/15 02:57:59;;;;;;;3.90;1.20;;;14.90;99.90;;;;;;4883817;29;38269;-81
2022/07/15 03:00:30;;;;;;;5.50;1.30;;;14.90;99.90;;;;;;4879718;29;38499;-80
2022/07/15 03:02:59;;;;;;;3.45;1.10;;;14.90;99.90;;;;;;4872931;29;36935;-79
2022/07/15 03:05:36;;;;;;;8.23;1.30;;;14.90;99.90;;;;;;4868939;29;38994;-80
2022/07/15 03:08:02;;;;;;;3.35;1.00;;;14.90;99.90;;;;;;4860893;29;39780;-79
2022/07/15 03:10:31;;;;;;;4.93;1.00;;;14.90;99.90;;;;;;4861677;29;39668;-80
2022/07/15 03:12:59;;;;;;;5.03;1.40;;;14.80;99.90;;;;;;4877357;29;37207;-79
2022/07/15 03:15:26;;;;;;;4.25;1.10;;;14.80;99.90;;;;;;4876394;29;39843;-79
2022/07/15 03:17:54;;;;;;;3.25;1.52;;;14.70;99.90;;;;;;4878951;29;38544;-79
2022/07/15 03:20:21;;;;;;;3.08;1.00;;;14.70;99.90;;;;;;4870280;29;37704;-80
2022/07/15 03:23:33;;;;;;;5.68;1.10;;;14.60;99.90;;;;;;4877156;29;37379;-80
2022/07/15 03:26:03;;;;;;;3.80;0.88;;;14.60;99.90;;;;;;4878596;29;48934;-79
2022/07/15 03:28:37;;;;;;;5.55;1.27;;;14.60;99.90;;;;;;4876274;29;48218;-80
2022/07/15 03:31:22;;;;;;;5.45;1.38;;;14.60;99.90;;;;;;4872200;29;38255;-80
2022/07/15 03:33:59;;;;;;;3.70;1.30;;;14.60;99.90;;;;;;4863552;29;36633;-82
2022/07/15 03:36:26;;;;;;;5.38;1.50;;;14.60;99.90;;;;;;4851288;29;37789;-80
2022/07/15 03:39:01;;;;;;;5.05;1.20;;;14.60;99.90;;;;;;4861613;29;20110;-80
2022/07/15 03:41:28;;;;;;;5.65;1.83;;;14.60;99.90;;;;;;4876379;29;48504;-80
2022/07/15 03:43:55;;;;;;;4.53;1.60;;;14.60;99.90;;;;;;4877231;29;36399;-80
2022/07/15 03:46:21;;;;;;;2.90;1.40;;;14.70;99.90;;;;;;4864829;29;38209;-80
2022/07/15 03:48:49;;;;;;;4.28;1.40;;;14.70;99.90;;;;;;4866068;29;40219;-79
2022/07/15 03:51:15;;;;;;;2.70;1.55;;;14.70;99.90;;;;;;4876530;29;37309;-80
2022/07/15 03:53:42;;;;;;;5.75;1.42;;;14.70;99.90;;;;;;4878002;29;35769;-79
2022/07/15 03:56:10;;;;;;;3.78;1.60;;;14.70;99.90;;;;;;4876477;29;38961;-81
2022/07/15 03:58:36;;;;;;;4.15;1.50;;;14.70;99.90;;;;;;4878056;29;37355;-80
2022/07/15 04:01:03;;;;;;;2.53;1.40;;;14.70;99.90;;;;;;4870739;29;37290;-78
2022/07/15 04:03:30;;;;;;;2.58;1.55;;;14.70;99.90;;;;;;4865435;29;36249;-80
2022/07/15 04:06:29;;;;;;;3.70;1.50;;;14.80;99.90;;;;;;4871072;29;38745;-80
2022/07/15 04:09:02;;;;;;;4.32;1.38;;;14.70;99.90;;;;;;4876282;29;48331;-79
2022/07/15 04:11:29;;;;;;;3.28;2.08;;;14.70;99.90;;;;;;4878276;29;50308;-80
2022/07/15 04:14:17;;;;;;;3.72;1.27;;;14.70;99.90;;;;;;4878329;29;36571;-79
2022/07/15 04:16:48;;;;;;;4.90;1.55;;;14.70;99.90;;;;;;4857951;29;47504;-80
2022/07/15 04:19:14;;;;;;;3.10;1.50;;;14.70;99.90;;;;;;4868678;29;37968;-79
2022/07/15 04:21:48;;;;;;;4.18;1.80;;;14.60;99.90;;;;;;4880075;29;38189;-80
2022/07/15 04:24:15;;;;;;;5.57;1.58;;;14.60;99.90;;;;;;4875055;29;37799;-81
2022/07/15 04:26:42;;;;;;;3.08;1.42;;;14.70;99.90;;;;;;4878961;29;38016;-80
2022/07/15 04:29:08;;;;;;;2.55;1.20;;;14.70;99.90;;;;;;4878125;29;38520;-81
2022/07/15 04:31:39;;;;;;;3.10;1.25;;;14.60;99.90;;;;;;4879573;29;38218;-80
2022/07/15 04:34:06;;;;;;;5.43;1.50;;;14.70;99.90;;;;;;4878257;29;37417;-80
2022/07/15 04:36:34;;;;;;;4.78;1.73;;;14.70;99.90;;;;;;4880808;29;37870;-81
2022/07/15 04:39:00;;;;;;;6.15;1.75;;;14.80;99.90;;;;;;4871843;29;37442;-80
2022/07/15 04:41:38;;;;;;;3.90;1.67;;;14.80;99.90;;;;;;4880436;29;37823;-81
2022/07/15 04:44:04;;;;;;;2.80;1.63;;;14.80;99.90;;;;;;4883496;29;36890;-80
2022/07/15 04:46:30;;;;;;;2.85;1.20;;;14.90;99.90;;;;;;4879309;29;38471;-80
2022/07/15 04:51:57;;;;;;;2.30;1.00;;;14.90;99.90;;;;;;4900434;29;50643;-80
2022/07/15 04:54:23;;;;;;;3.08;1.38;;;15.00;99.90;;;;;;4880647;29;37282;-80
2022/07/15 04:56:49;;;;;;;6.00;0.90;;;15.10;99.90;;;;;;4876729;29;37879;-80
2022/07/15 04:59:16;;;;;;;4.75;1.50;;;15.10;99.90;;;;;;4876892;29;38603;-79
2022/07/15 05:02:01;;;;;;;6.20;1.48;;;15.20;99.90;;;;;;4881369;29;36459;-81
2022/07/15 05:04:27;;;;;;;3.65;1.02;;;15.30;99.90;;;;;;4882378;29;48130;-79
2022/07/15 05:06:53;;;;;;;3.22;1.10;;;15.30;99.90;;;;;;4863674;29;39282;-80
2022/07/15 05:09:20;;;;;;;2.83;1.10;;;15.40;99.90;;;;;;4890607;29;39311;-80
2022/07/15 05:11:49;;;;;;;5.05;1.35;;;15.40;99.90;;;;;;4880539;29;38474;-80
2022/07/15 05:14:16;;;;;;;4.82;1.30;;;15.50;99.90;;;;;;4879368;29;37504;-81
2022/07/15 05:17:06;;;;;;;4.68;1.20;;;15.60;99.90;;;;;;4873358;29;39714;-80
2022/07/15 05:24:57;;;;;;;5.50;1.92;;;16.10;99.90;;;;;;5386415;23;20048;-80
2022/07/15 05:27:47;;;;;;;3.08;1.00;;;16.60;99.90;;;;;;4885241;29;39106;-78
2022/07/15 05:30:37;;;;;;;4.68;1.30;;;17.00;99.90;;;;;;4886354;29;39179;-79
2022/07/15 05:39:56;;;;;;;6.03;0.77;;;17.80;99.90;;;;;;4909747;29;50418;-79
2022/07/15 06:31:40;;;;;;;6.15;0.75;;;19.50;99.90;;;;;;5945483;23;20598;31
2022/07/15 06:34:13;;;;;;;2.05;0.40;;;19.80;99.90;;;;;;4826291;29;38676;-80
2022/07/15 08:21:09;;;;;;;1.85;0.57;;;22.90;99.90;;;;;;5049653;23;20046;-82
2022/07/15 08:39:15;;;;;;;4.28;0.65;;;22.70;99.90;;;;;;5561590;23;20058;-81
2022/07/15 08:41:49;;;;;;;3.65;0.47;;;22.70;99.90;;;;;;5019490;23;39024;-80
2022/07/15 09:33:43;;;;;;;2.10;0.88;;;23.00;99.90;;;;;;5826950;23;20242;-79
2022/07/15 09:39:57;;;;;;;2.78;0.70;;;22.40;99.90;;;;;;4854628;29;50549;-81
2022/07/15 10:02:06;;;;;;;3.00;0.57;;;21.60;99.90;;;;;;5880318;23;20955;-79
2022/07/15 10:28:50;;;;;;;3.00;0.50;;;20.90;99.90;;;;;;5043100;23;20232;-82
2022/07/15 10:31:24;;;;;;;2.17;0.60;;;20.80;99.90;;;;;;4859232;29;39091;-82
2022/07/15 10:34:03;;;;;;;2.05;0.50;;;20.80;99.90;;;;;;4857176;29;38854;-81
2022/07/15 10:36:47;;;;;;;1.98;0.38;;;20.90;99.90;;;;;;4871765;29;47251;-83
2022/07/15 10:39:15;;;;;;;3.58;0.60;;;20.80;99.90;;;;;;4852441;29;36861;-82
2022/07/15 10:41:58;;;;;;;1.15;0.63;;;20.70;99.90;;;;;;4854574;29;39498;-82
2022/07/15 10:44:25;;;;;;;;;;;21.00;99.90;;;;;;4852108;29;38102;-83
2022/07/15 10:47:12;;;;;;;4.38;0.60;;;21.70;99.90;;;;;;4874429;29;38627;-81
2022/07/15 10:49:40;;;;;;;1.85;0.50;;;22.50;99.90;;;;;;4857674;29;47402;-82
2022/07/15 10:52:12;;;;;;;2.53;0.63;;;22.40;99.90;;;;;;4856418;29;37751;-82
2022/07/15 10:54:41;;;;;;;0.55;0.30;;;22.50;99.90;;;;;;4854177;29;38662;-82
2022/07/15 10:57:07;;;;;;;1.55;0.52;;;22.70;99.90;;;;;;4854280;29;37083;-83
2022/07/15 10:59:41;;;;;;;2.67;0.50;;;23.40;99.90;;;;;;4858794;29;36932;-84
2022/07/15 11:02:07;;;;;;;0.45;0.38;;;23.90;99.90;;;;;;4857039;29;38562;-82
2022/07/15 11:04:34;;;;;;;2.30;0.50;;;23.70;99.90;;;;;;4855821;29;37563;-85
2022/07/15 11:07:04;;;;;;;2.53;0.55;;;23.90;99.90;;;;;;4875020;29;37959;-82
2022/07/15 11:09:48;;;;;;;1.30;0.50;;;23.80;99.90;;;;;;4861465;29;49053;-85
2022/07/15 11:12:16;;;;;;;2.55;0.88;;;24.10;99.90;;;;;;4856989;29;37975;-83
2022/07/15 11:14:57;;;;;;;1.20;0.32;;;24.30;99.90;;;;;;4854074;29;38504;-82
2022/07/15 11:17:46;;;;;;;1.50;0.50;;;24.50;99.90;;;;;;4856286;29;37242;-84
2022/07/15 11:20:25;;;;;;;2.40;0.50;;;24.90;99.90;;;;;;4867317;29;37363;-82
2022/07/15 11:22:54;;;;;;;1.02;0.60;;;25.00;99.90;;;;;;4851188;29;37766;-82
2022/07/15 11:25:26;;;;;;;3.72;0.93;;;25.10;99.90;;;;;;4849477;29;39458;-82
2022/07/15 11:28:03;;;;;;;1.77;0.55;;;24.80;99.90;;;;;;4870848;29;37225;-82
2022/07/15 11:30:38;;;;;;;3.78;0.70;;;24.90;99.90;;;;;;4857118;29;47572;-82
2022/07/15 11:33:07;;;;;;;1.77;0.70;;;25.30;99.90;;;;;;4851437;29;39159;-82
2022/07/15 11:35:43;;;;;;;3.53;0.65;;;24.70;99.90;;;;;;4853274;29;37309;-82
2022/07/15 11:38:09;;;;;;;2.30;0.90;;;24.30;99.90;;;;;;4844465;29;37875;-82
2022/07/15 11:46:05;;;;;;;3.05;0.95;;;24.20;99.90;;;;;;4873545;29;39334;-85
2022/07/15 11:48:39;;;;;;;2.05;0.80;;;24.40;99.90;;;;;;4864794;29;38688;-82
2022/07/15 11:51:07;;;;;;;2.05;0.63;;;24.60;99.90;;;;;;4854631;29;36251;-80
2022/07/15 11:53:36;;;;;;;3.10;0.98;;;24.90;99.90;;;;;;4867750;29;38378;-80
2022/07/15 11:56:02;;;;;;;2.67;0.90;;;25.10;99.90;;;;;;4868444;29;38712;-81
2022/07/15 11:58:45;;;;;;;3.47;0.95;;;24.70;99.90;;;;;;4856920;29;37584;-83
2022/07/15 12:01:14;;;;;;;2.65;1.02;;;24.80;99.90;;;;;;4855190;29;37214;-82
2022/07/15 12:03:46;;;;;;;2.78;0.98;;;25.00;99.90;;;;;;4855945;29;39157;-83
2022/07/15 12:06:31;;;;;;;3.17;1.23;;;25.30;99.90;;;;;;4855428;29;37648;-83
2022/07/15 12:09:03;;;;;;;2.58;0.90;;;25.30;99.90;;;;;;4857595;29;37111;-83
2022/07/15 12:11:37;;;;;;;4.78;1.38;;;25.70;99.90;;;;;;4853461;29;47647;-82
2022/07/15 12:14:07;;;;;;;2.20;0.90;;;25.30;99.90;;;;;;4861656;29;38696;-82
2022/07/15 12:16:39;;;;;;;1.65;0.70;;;25.30;99.90;;;;;;4856971;29;38574;-82
2022/07/15 12:19:20;;;;;;;2.35;0.80;;;25.30;99.90;;;;;;4870627;29;38157;-80
2022/07/15 12:21:59;;;;;;;4.47;0.80;;;25.10;99.90;;;;;;4855351;29;35938;-83
2022/07/15 12:24:39;;;;;;;2.80;1.00;;;23.90;99.90;;;;;;4854182;29;39075;-81
2022/07/15 12:27:05;;;;;;;3.45;1.10;;;23.40;99.90;;;;;;4870416;29;38889;-82
2022/07/15 12:29:33;;;;;;;2.58;0.63;;;23.60;99.90;;;;;;4856791;29;37366;-83
2022/07/15 12:32:00;;;;;;;3.30;1.00;;;24.10;99.90;;;;;;4862350;29;38266;-83
2022/07/15 12:34:59;;;;;;;4.03;0.70;;;24.80;99.90;;;;;;4856045;29;47362;-83
2022/07/15 12:37:29;;;;;;;2.00;0.70;;;24.80;99.90;;;;;;4863545;29;39162;-83
2022/07/15 12:40:06;;;;;;;3.28;0.75;;;24.20;99.90;;;;;;4845681;29;37322;-83
2022/07/15 12:42:39;;;;;;;3.92;0.85;;;24.00;99.90;;;;;;4856102;29;47272;-81
2022/07/15 12:45:13;;;;;;;2.25;0.60;;;24.00;99.90;;;;;;4852566;29;39488;-82
2022/07/15 12:48:02;;;;;;;2.25;0.80;;;24.10;99.90;;;;;;4848342;29;38364;-83
2022/07/15 12:50:50;;;;;;;3.67;0.80;;;24.00;99.90;;;;;;4844141;29;46637;-82
2022/07/15 12:53:21;;;;;;;1.60;0.90;;;24.20;99.90;;;;;;4854582;29;36741;-82
2022/07/15 12:55:49;;;;;;;2.13;0.80;;;24.10;99.90;;;;;;4870690;29;39926;-83
2022/07/15 12:58:17;;;;;;;2.75;1.17;;;23.60;99.90;;;;;;4867321;29;38373;-82
2022/07/15 13:00:45;;;;;;;2.33;0.70;;;23.20;99.90;;;;;;4855488;29;37160;-82
2022/07/15 13:03:22;;;;;;;4.43;0.80;;;22.90;99.90;;;;;;4855018;29;37375;-83
2022/07/15 13:05:54;;;;;;;2.42;0.63;;;22.70;99.90;;;;;;4855103;29;37801;-82
2022/07/15 13:08:33;;;;;;;5.40;1.58;;;22.70;99.90;;;;;;4851747;29;38075;-81
2022/07/15 13:11:01;;;;;;;3.67;1.13;;;22.80;99.90;;;;;;4856242;29;37506;-83
2022/07/15 13:13:30;;;;;;;2.85;0.88;;;22.70;99.90;;;;;;4856374;29;47432;-82
2022/07/15 13:15:58;;;;;;;6.85;1.10;;;22.80;99.90;;;;;;4853281;29;38244;-86
2022/07/15 13:18:25;;;;;;;3.78;1.00;;;22.80;99.90;;;;;;4869971;29;38595;-83
2022/07/15 13:20:52;;;;;;;4.43;1.23;;;23.00;99.90;;;;;;4855418;29;37557;-82
2022/07/15 13:23:18;;;;;;;3.40;1.02;;;22.70;99.90;;;;;;4854395;29;36479;-82
2022/07/15 13:25:45;;;;;;;2.05;0.90;;;22.60;99.90;;;;;;4855108;29;38076;-83
2022/07/15 13:28:11;;;;;;;4.00;1.23;;;22.90;99.90;;;;;;4854655;29;38430;-85
2022/07/15 13:30:38;;;;;;;4.53;1.20;;;23.30;99.90;;;;;;4868547;29;37764;-80
2022/07/15 13:33:05;;;;;;;4.10;1.15;;;23.40;99.90;;;;;;4854005;29;37897;-84
2022/07/15 13:35:32;;;;;;;4.93;1.30;;;23.40;99.90;;;;;;4853829;29;39271;-82
2022/07/15 13:37:58;;;;;;;4.18;1.77;;;23.30;99.90;;;;;;4872890;29;38482;-83
2022/07/15 13:40:24;;;;;;;2.75;1.38;;;23.30;99.90;;;;;;4852886;29;37555;-83
2022/07/15 13:42:51;;;;;;;3.10;1.20;;;23.20;99.90;;;;;;4855845;29;37483;-84
2022/07/15 13:45:18;;;;;;;3.75;1.05;;;23.60;99.90;;;;;;4859266;29;38987;-82
2022/07/15 13:47:44;;;;;;;3.95;1.00;;;24.10;99.90;;;;;;4858833;29;38791;-83
2022/07/15 13:52:57;;;;;;;8.45;1.10;;;24.30;99.90;;;;;;4867604;29;38699;-83
2022/07/15 13:55:24;;;;;;;3.25;1.00;;;24.00;99.90;;;;;;4858426;29;37853;-83
2022/07/15 13:57:51;;;;;;;3.10;0.90;;;24.00;99.90;;;;;;4868405;29;38326;-84
2022/07/15 14:00:22;;;;;;;5.65;1.20;;;23.80;99.90;;;;;;4871337;29;38002;-83
2022/07/15 14:02:51;;;;;;;4.32;0.95;;;23.80;99.90;;;;;;4852658;29;38812;-82
2022/07/15 14:05:18;;;;;;;2.55;0.70;;;23.80;99.90;;;;;;4867057;29;39019;-83
2022/07/15 14:07:45;;;;;;;3.22;1.13;;;23.80;99.90;;;;;;4858570;29;37584;-85
2022/07/15 14:10:12;;;;;;;5.20;0.90;;;24.00;99.90;;;;;;4855246;29;37023;-81
2022/07/15 14:12:39;;;;;;;5.22;1.30;;;23.90;99.90;;;;;;4856973;29;37702;-83
2022/07/15 14:15:05;;;;;;;2.80;0.90;;;23.80;99.90;;;;;;4874316;29;39255;-82
2022/07/15 14:17:32;;;;;;;3.42;0.80;;;23.80;99.90;;;;;;4869850;29;38963;-83
2022/07/15 14:19:58;;;;;;;7.03;1.70;;;24.00;99.90;;;;;;4854517;29;36918;-83
2022/07/15 14:22:27;;;;;;;7.63;1.40;;;24.10;99.90;;;;;;4854427;29;37395;-82
2022/07/15 14:24:54;;;;;;;3.05;1.08;;;24.40;99.90;;;;;;4857853;29;37972;-82
2022/07/15 14:27:20;;;;;;;6.00;1.40;;;24.10;99.90;;;;;;4850615;29;37549;-82
2022/07/15 14:29:46;;;;;;;3.13;0.88;;;24.00;99.90;;;;;;4857088;29;37039;-83
2022/07/15 14:32:12;;;;;;;3.97;1.05;;;24.10;99.90;;;;;;4857633;29;37792;-83
2022/07/15 14:34:38;;;;;;;1.58;0.80;;;24.20;99.90;;;;;;4851182;29;38972;-83
2022/07/15 14:37:04;;;;;;;4.68;1.27;;;24.10;99.90;;;;;;4855792;29;39041;-82
2022/07/15 14:39:31;;;;;;;2.90;0.98;;;24.50;99.90;;;;;;4872946;29;38064;-82
2022/07/15 14:41:57;;;;;;;5.05;1.02;;;24.60;99.90;;;;;;4858073;29;38187;-82
2022/07/15 14:44:23;;;;;;;3.35;1.17;;;24.60;99.90;;;;;;4858690;29;37563;-83
2022/07/15 14:46:49;;;;;;;1.67;0.77;;;24.50;99.90;;;;;;4871955;29;38342;-82
2022/07/15 14:49:15;;;;;;;2.83;1.27;;;24.20;99.90;;;;;;4870298;29;37772;-83
2022/07/15 14:51:41;;;;;;;4.70;0.93;;;23.80;99.90;;;;;;4874066;29;37129;-83
2022/07/15 14:54:08;;;;;;;2.92;1.48;;;23.90;99.90;;;;;;4872513;29;38938;-86
2022/07/15 14:56:34;;;;;;;5.40;1.40;;;24.00;99.90;;;;;;4856099;29;38821;-84
2022/07/15 14:59:00;;;;;;;2.28;0.90;;;24.10;99.90;;;;;;4856121;29;36594;-82
2022/07/15 15:01:26;;;;;;;3.63;1.00;;;23.70;99.90;;;;;;4873232;29;38062;-85
2022/07/15 15:03:52;;;;;;;3.63;1.38;;;23.40;99.90;;;;;;4857631;29;38852;-82
2022/07/15 15:06:18;;;;;;;4.72;1.40;;;23.20;99.90;;;;;;4853789;29;38904;-82
2022/07/15 15:08:44;;;;;;;4.55;1.35;;;23.30;99.90;;;;;;4851096;29;38060;-83
2022/07/15 15:11:10;;;;;;;4.63;1.33;;;23.40;99.90;;;;;;4856900;29;37378;-84
2022/07/15 15:13:37;;;;;;;4.47;1.10;;;23.40;99.90;;;;;;4847781;29;37708;-82
2022/07/15 15:16:03;;;;;;;4.22;1.50;;;23.60;99.90;;;;;;4873199;29;38758;-85
2022/07/15 15:18:29;;;;;;;2.97;1.10;;;23.40;99.90;;;;;;4858844;29;38520;-84
2022/07/15 15:20:55;;;;;;;4.35;1.35;;;23.50;99.90;;;;;;4856811;29;36535;-86
2022/07/15 15:23:21;;;;;;;2.40;0.80;;;23.60;99.90;;;;;;4869680;29;38265;-83
2022/07/15 15:28:32;;;;;;;3.58;0.80;;;23.40;99.90;;;;;;4869607;29;50175;-78
2022/07/15 15:30:58;;;;;;;3.10;0.77;;;23.40;99.90;;;;;;4874388;29;37837;-82
2022/07/15 15:33:24;;;;;;;1.88;0.85;;;23.50;99.90;;;;;;4855071;29;38773;-83
2022/07/15 15:35:50;;;;;;;5.20;0.95;;;23.40;99.90;;;;;;4856431;29;38464;-81
2022/07/15 15:38:16;;;;;;;5.68;1.38;;;23.40;99.90;;;;;;4855480;29;37084;-82
2022/07/15 15:40:42;;;;;;;5.47;1.15;;;23.40;99.90;;;;;;4855847;29;36693;-83
2022/07/15 15:43:09;;;;;;;5.07;1.10;;;23.30;99.90;;;;;;4855244;29;37943;-82
2022/07/15 15:45:35;;;;;;;2.47;1.00;;;23.30;99.90;;;;;;4857126;29;37484;-82
2022/07/15 15:48:02;;;;;;;3.28;1.10;;;23.40;99.90;;;;;;4868421;29;38461;-82
2022/07/15 15:50:28;;;;;;;3.88;0.90;;;23.30;99.90;;;;;;4861877;29;37916;-81
2022/07/15 15:52:54;;;;;;;3.95;1.10;;;23.30;99.90;;;;;;4854332;29;38001;-81
2022/07/15 15:55:20;;;;;;;6.97;1.70;;;23.50;99.90;;;;;;4867850;29;37333;-81
2022/07/15 15:57:46;;;;;;;2.95;1.00;;;23.70;99.90;;;;;;4870317;29;38083;-81
2022/07/15 16:00:12;;;;;;;2.75;0.90;;;23.60;99.90;;;;;;4855032;29;36325;-81
2022/07/15 16:02:39;;;;;;;3.33;1.05;;;23.50;99.90;;;;;;4856461;29;39113;-82
2022/07/15 16:05:06;;;;;;;2.00;1.00;;;23.60;99.90;;;;;;4854162;29;37150;-82
2022/07/15 16:07:33;;;;;;;2.88;0.95;;;23.20;99.90;;;;;;4854606;29;38610;-82
2022/07/15 16:09:59;;;;;;;6.70;1.00;;;23.20;99.90;;;;;;4856406;29;36099;-86
2022/07/15 16:12:25;;;;;;;3.00;1.10;;;23.00;99.90;;;;;;4856228;29;40028;-81
2022/07/15 16:14:52;;;;;;;2.55;1.02;;;22.90;99.90;;;;;;4855445;29;37770;-82
2022/07/15 16:17:18;;;;;;;3.92;1.65;;;23.00;99.90;;;;;;4866552;29;38174;-89
2022/07/15 16:19:44;;;;;;;2.28;0.90;;;23.20;99.90;;;;;;4856834;29;37744;-84
2022/07/15 16:24:54;;;;;;;3.60;0.82;;;23.50;99.90;;;;;;4863001;29;39141;-83
2022/07/15 16:27:20;;;;;;;4.07;1.08;;;23.40;99.90;;;;;;4855699;29;37558;-80
2022/07/15 16:29:46;;;;;;;1.73;0.65;;;23.20;99.90;;;;;;4873230;29;37181;-83
2022/07/15 16:32:13;;;;;;;5.25;1.13;;;23.20;99.90;;;;;;4854742;29;37731;-82
2022/07/15 16:34:39;;;;;;;3.63;0.93;;;23.10;99.90;;;;;;4867669;29;39335;-82
2022/07/15 16:37:05;;;;;;;1.45;0.80;;;22.90;99.90;;;;;;4867927;29;38851;-83
2022/07/15 16:39:31;;;;;;;3.60;0.80;;;22.60;99.90;;;;;;4856304;29;36138;-83
2022/07/15 16:41:57;;;;;;;5.78;0.70;;;22.70;99.90;;;;;;4855809;29;38721;-81
2022/07/15 16:44:23;;;;;;;1.30;0.70;;;22.70;99.90;;;;;;4847791;29;38892;-83
2022/07/15 16:46:50;;;;;;;2.40;0.70;;;22.70;99.90;;;;;;4854969;29;36979;-83
2022/07/15 16:49:16;;;;;;;2.35;0.73;;;22.80;99.90;;;;;;4871877;29;36360;-83
2022/07/15 16:51:42;;;;;;;2.50;0.80;;;22.90;99.90;;;;;;4856007;29;38234;-82
2022/07/15 16:54:08;;;;;;;2.50;0.73;;;22.90;99.90;;;;;;4855049;29;37949;-82
2022/07/15 16:56:34;;;;;;;4.45;0.77;;;22.90;99.90;;;;;;4856152;29;37444;-82
2022/07/15 16:59:00;;;;;;;1.75;0.70;;;22.90;99.90;;;;;;4869413;29;37626;-83
2022/07/15 17:01:26;;;;;;;0.93;0.40;;;22.90;99.90;;;;;;4857075;29;39140;-81
2022/07/15 17:03:52;;;;;;;3.08;0.75;;;22.80;99.90;;;;;;4856709;29;37661;-81
2022/07/15 17:06:18;;;;;;;2.63;0.80;;;22.80;99.90;;;;;;4853240;29;38214;-82
2022/07/15 17:08:44;;;;;;;3.53;1.00;;;22.90;99.90;;;;;;4854624;29;37124;-82
2022/07/15 17:11:10;;;;;;;1.23;0.70;;;22.80;99.90;;;;;;4854732;29;38675;-84
2022/07/15 17:13:36;;;;;;;2.65;1.00;;;22.70;99.90;;;;;;4855021;29;37382;-81
2022/07/15 17:16:03;;;;;;;1.38;0.80;;;22.70;99.90;;;;;;4854746;29;37611;-82
2022/07/15 17:18:29;;;;;;;2.35;0.98;;;22.70;99.90;;;;;;4876931;29;38224;-82
2022/07/15 17:20:56;;;;;;;3.80;1.50;;;22.70;99.90;;;;;;4861241;29;38081;-82
2022/07/15 17:23:22;;;;;;;2.78;0.80;;;22.50;99.90;;;;;;4878311;29;38734;-83
2022/07/15 17:25:48;;;;;;;1.60;0.70;;;22.50;99.90;;;;;;4860747;29;37443;-82
2022/07/15 17:28:14;;;;;;;2.72;0.70;;;22.60;99.90;;;;;;4870058;29;37266;-81
2022/07/15 17:30:41;;;;;;;4.35;1.55;;;22.50;99.90;;;;;;4860224;29;38831;-82
2022/07/15 17:33:07;;;;;;;1.33;0.90;;;22.40;99.90;;;;;;4859964;29;37159;-81
2022/07/15 17:35:33;;;;;;;1.33;0.57;;;22.30;99.90;;;;;;4861262;29;38344;-81
2022/07/15 17:37:59;;;;;;;1.20;0.60;;;22.20;99.90;;;;;;4871381;29;37117;-83
2022/07/15 17:40:25;;;;;;;4.18;0.93;;;22.10;99.90;;;;;;4878668;29;39998;-83
2022/07/15 17:42:51;;;;;;;2.05;0.75;;;22.10;99.90;;;;;;4860243;29;37740;-84
2022/07/15 17:45:18;;;;;;;1.85;0.63;;;22.10;99.90;;;;;;4860219;29;38725;-83
2022/07/15 17:47:44;;;;;;;5.38;0.80;;;22.10;99.90;;;;;;4877025;29;38001;-82
2022/07/15 17:50:10;;;;;;;1.00;0.60;;;22.10;99.90;;;;;;4857843;29;38491;-83
2022/07/15 17:52:36;;;;;;;1.98;0.70;;;22.10;99.90;;;;;;4860605;29;37261;-82
2022/07/15 17:55:03;;;;;;;2.75;0.70;;;22.10;99.90;;;;;;4866977;29;38215;-84
2022/07/15 17:57:29;;;;;;;1.35;0.70;;;21.90;99.90;;;;;;4872460;29;48514;-82
2022/07/15 17:59:55;;;;;;;2.42;0.70;;;21.70;99.90;;;;;;4860287;29;38081;-82
2022/07/15 18:02:21;;;;;;;2.50;0.80;;;21.50;99.90;;;;;;4858453;29;37180;-83
2022/07/15 18:04:47;;;;;;;2.30;0.80;;;21.50;99.90;;;;;;4860892;29;37336;-82